CFI033 ZGHA-ZGHA
Flight info
| Callsign | CFI033 |
|---|---|
| Flight time | 0h 24m |
| Altitude | 2000 |
| Route | LOCAL |
| Aircraft | C700/M-SBDGHM1RWXY/LB2 |
Departure
| Time | 2026-04-27 10:52 |
|---|---|
| Airport | Changsha Huanghua International Airport (ZGHA) |
Arrival
| Time | 2026-04-27 11:16 |
|---|---|
| Airport | Changsha Huanghua International Airport (ZGHA) |
| Time | Latitude | Longitude | Altitude | Speed | Heading |
|---|---|---|---|---|---|
| 2026-04-27 10:39 | 28.20667 | 113.21577 | 208 ft | 0 kts | 266° |
| 2026-04-27 10:47 | 28.20667 | 113.21576 | 208 ft | 1 kts | 266° |
| 2026-04-27 10:48 | 28.20665 | 113.21546 | 208 ft | 7 kts | 266° |
| 2026-04-27 10:48 | 28.20637 | 113.21508 | 210 ft | 9 kts | 146° |
| 2026-04-27 10:48 | 28.20641 | 113.21584 | 208 ft | 13 kts | 86° |
| 2026-04-27 10:48 | 28.20610 | 113.21683 | 211 ft | 16 kts | 120° |
| 2026-04-27 10:49 | 28.20604 | 113.21758 | 213 ft | 0 kts | 87° |
| 2026-04-27 10:50 | 28.20605 | 113.21771 | 214 ft | 4 kts | 86° |
| 2026-04-27 10:50 | 28.20608 | 113.21828 | 210 ft | 11 kts | 86° |
| 2026-04-27 10:51 | 28.20542 | 113.21881 | 210 ft | 19 kts | 176° |
| 2026-04-27 10:51 | 28.20250 | 113.21898 | 213 ft | 78 kts | 175° |
| 2026-04-27 10:51 | 28.19434 | 113.21946 | 211 ft | 154 kts | 175° |
| 2026-04-27 10:51 | 28.18221 | 113.22054 | 649 ft | 187 kts | 176° |
| 2026-04-27 10:52 | 28.16809 | 113.22107 | 1340 ft | 211 kts | 178° |
| 2026-04-27 10:52 | 28.15326 | 113.22191 | 1983 ft | 217 kts | 176° |
| 2026-04-27 10:52 | 28.13830 | 113.22301 | 1989 ft | 211 kts | 176° |
| 2026-04-27 10:52 | 28.12386 | 113.22420 | 1990 ft | 205 kts | 172° |
| 2026-04-27 10:53 | 28.11136 | 113.23112 | 1990 ft | 203 kts | 134° |
| 2026-04-27 10:53 | 28.10698 | 113.26189 | 1994 ft | 209 kts | 86° |
| 2026-04-27 10:53 | 28.10847 | 113.27831 | 1998 ft | 210 kts | 86° |
| 2026-04-27 10:54 | 28.11006 | 113.29474 | 1997 ft | 209 kts | 86° |
| 2026-04-27 10:54 | 28.11166 | 113.31109 | 1997 ft | 208 kts | 86° |
| 2026-04-27 10:54 | 28.11470 | 113.32706 | 1991 ft | 211 kts | 65° |
| 2026-04-27 10:54 | 28.12535 | 113.33833 | 1989 ft | 216 kts | 24° |
| 2026-04-27 10:55 | 28.14024 | 113.34039 | 2003 ft | 219 kts | 357° |
| 2026-04-27 10:55 | 28.15546 | 113.33915 | 2001 ft | 219 kts | 356° |
| 2026-04-27 10:55 | 28.17069 | 113.33786 | 2006 ft | 220 kts | 356° |
| 2026-04-27 10:55 | 28.18596 | 113.33647 | 2012 ft | 220 kts | 356° |
| 2026-04-27 10:56 | 28.20105 | 113.33507 | 2010 ft | 220 kts | 355° |
| 2026-04-27 10:56 | 28.21625 | 113.33363 | 2011 ft | 219 kts | 356° |
| 2026-04-27 10:56 | 28.23142 | 113.33222 | 2009 ft | 218 kts | 356° |
| 2026-04-27 10:56 | 28.24650 | 113.33082 | 2007 ft | 217 kts | 356° |
| 2026-04-27 10:57 | 28.26159 | 113.32938 | 2009 ft | 218 kts | 355° |
| 2026-04-27 10:57 | 28.27676 | 113.32793 | 2009 ft | 219 kts | 355° |
| 2026-04-27 10:57 | 28.29198 | 113.32649 | 2010 ft | 220 kts | 355° |
| 2026-04-27 10:57 | 28.30726 | 113.32505 | 2013 ft | 221 kts | 356° |
| 2026-04-27 10:58 | 28.32250 | 113.32366 | 2011 ft | 215 kts | 355° |
| 2026-04-27 10:58 | 28.33686 | 113.32230 | 2002 ft | 201 kts | 356° |
| 2026-04-27 10:58 | 28.35036 | 113.32017 | 1994 ft | 194 kts | 339° |
| 2026-04-27 10:58 | 28.36020 | 113.31026 | 1996 ft | 193 kts | 292° |
| 2026-04-27 10:59 | 28.36200 | 113.29536 | 1999 ft | 193 kts | 265° |
| 2026-04-27 10:59 | 28.36168 | 113.28001 | 2007 ft | 195 kts | 266° |
| 2026-04-27 10:59 | 28.36128 | 113.26471 | 2005 ft | 191 kts | 261° |
| 2026-04-27 11:00 | 28.34500 | 113.24457 | 2007 ft | 183 kts | 205° |
| 2026-04-27 11:00 | 28.33334 | 113.23870 | 2004 ft | 184 kts | 194° |
| 2026-04-27 11:00 | 28.32079 | 113.23656 | 2007 ft | 182 kts | 180° |
| 2026-04-27 11:00 | 28.30813 | 113.23688 | 2009 ft | 182 kts | 178° |
| 2026-04-27 11:01 | 28.29549 | 113.23736 | 1974 ft | 184 kts | 176° |
| 2026-04-27 11:01 | 28.28252 | 113.23835 | 1747 ft | 188 kts | 175° |
| 2026-04-27 11:01 | 28.26956 | 113.23903 | 1512 ft | 182 kts | 178° |
| 2026-04-27 11:01 | 28.25716 | 113.23985 | 1274 ft | 177 kts | 175° |
| 2026-04-27 11:02 | 28.24477 | 113.24066 | 1048 ft | 180 kts | 177° |
| 2026-04-27 11:02 | 28.23860 | 113.24092 | 934 ft | 181 kts | 177° |
| 2026-04-27 11:02 | 28.22591 | 113.24184 | 704 ft | 184 kts | 176° |
| 2026-04-27 11:02 | 28.21306 | 113.24257 | 462 ft | 185 kts | 178° |
| 2026-04-27 11:03 | 28.20020 | 113.24335 | 281 ft | 182 kts | 175° |
| 2026-04-27 11:03 | 28.18774 | 113.24424 | 301 ft | 182 kts | 177° |
| 2026-04-27 11:03 | 28.17508 | 113.24483 | 304 ft | 186 kts | 176° |
| 2026-04-27 11:03 | 28.16209 | 113.24586 | 368 ft | 193 kts | 176° |
| 2026-04-27 11:04 | 28.14860 | 113.24687 | 1421 ft | 201 kts | 175° |
| 2026-04-27 11:04 | 28.13473 | 113.24797 | 1988 ft | 198 kts | 176° |
| 2026-04-27 11:04 | 28.12136 | 113.25201 | 1989 ft | 204 kts | 147° |
| 2026-04-27 11:04 | 28.11313 | 113.26490 | 1990 ft | 208 kts | 107° |
| 2026-04-27 11:05 | 28.11278 | 113.28133 | 1994 ft | 210 kts | 86° |
| 2026-04-27 11:05 | 28.11430 | 113.29780 | 1998 ft | 210 kts | 86° |
| 2026-04-27 11:05 | 28.11587 | 113.31427 | 2009 ft | 210 kts | 85° |
| 2026-04-27 11:05 | 28.12094 | 113.32963 | 1994 ft | 214 kts | 52° |
| 2026-04-27 11:06 | 28.13337 | 113.33815 | 1995 ft | 216 kts | 13° |
| 2026-04-27 11:06 | 28.14847 | 113.33836 | 1995 ft | 218 kts | 356° |
| 2026-04-27 11:06 | 28.16363 | 113.33711 | 2002 ft | 219 kts | 356° |
| 2026-04-27 11:06 | 28.17891 | 113.33577 | 2008 ft | 220 kts | 356° |
| 2026-04-27 11:07 | 28.19422 | 113.33441 | 2009 ft | 221 kts | 356° |
| 2026-04-27 11:07 | 28.20949 | 113.33300 | 2013 ft | 220 kts | 356° |
| 2026-04-27 11:07 | 28.22472 | 113.33162 | 2006 ft | 219 kts | 356° |
| 2026-04-27 11:07 | 28.23986 | 113.33023 | 2004 ft | 218 kts | 355° |
| 2026-04-27 11:08 | 28.25497 | 113.32881 | 2004 ft | 218 kts | 356° |
| 2026-04-27 11:08 | 28.27011 | 113.32741 | 2008 ft | 219 kts | 356° |
| 2026-04-27 11:08 | 28.28512 | 113.32602 | 2008 ft | 220 kts | 356° |
| 2026-04-27 11:08 | 28.30037 | 113.32462 | 2012 ft | 220 kts | 355° |
| 2026-04-27 11:09 | 28.31567 | 113.32321 | 2009 ft | 221 kts | 356° |
| 2026-04-27 11:09 | 28.33084 | 113.32183 | 2008 ft | 213 kts | 355° |
| 2026-04-27 11:09 | 28.34510 | 113.32050 | 2002 ft | 200 kts | 356° |
| 2026-04-27 11:09 | 28.35873 | 113.31921 | 1992 ft | 195 kts | 355° |
| 2026-04-27 11:10 | 28.37132 | 113.31414 | 1996 ft | 196 kts | 318° |
| 2026-04-27 11:10 | 28.37757 | 113.30082 | 1996 ft | 194 kts | 274° |
| 2026-04-27 11:10 | 28.37758 | 113.28552 | 1999 ft | 194 kts | 266° |
| 2026-04-27 11:10 | 28.37735 | 113.27025 | 2003 ft | 192 kts | 266° |
| 2026-04-27 11:11 | 28.37694 | 113.25515 | 2019 ft | 190 kts | 262° |
| 2026-04-27 11:11 | 28.37184 | 113.24201 | 2011 ft | 183 kts | 220° |
| 2026-04-27 11:11 | 28.36043 | 113.23637 | 2018 ft | 181 kts | 190° |
| 2026-04-27 11:11 | 28.34805 | 113.23468 | 2023 ft | 182 kts | 179° |
| 2026-04-27 11:12 | 28.33546 | 113.23512 | 2044 ft | 175 kts | 178° |
| 2026-04-27 11:12 | 28.32382 | 113.23560 | 2031 ft | 160 kts | 176° |
| 2026-04-27 11:12 | 28.31283 | 113.23649 | 2027 ft | 158 kts | 176° |
| 2026-04-27 11:12 | 28.30177 | 113.23699 | 2026 ft | 159 kts | 177° |
| 2026-04-27 11:13 | 28.29061 | 113.23784 | 1917 ft | 162 kts | 175° |
| 2026-04-27 11:13 | 28.27951 | 113.23846 | 1715 ft | 158 kts | 178° |
| 2026-04-27 11:13 | 28.26840 | 113.23911 | 1504 ft | 160 kts | 175° |
| 2026-04-27 11:13 | 28.25721 | 113.23993 | 1297 ft | 162 kts | 177° |
| 2026-04-27 11:14 | 28.24606 | 113.24044 | 1097 ft | 160 kts | 176° |
| 2026-04-27 11:14 | 28.23896 | 113.24103 | 965 ft | 146 kts | 175° |
| 2026-04-27 11:14 | 28.22850 | 113.24158 | 758 ft | 144 kts | 177° |
| 2026-04-27 11:15 | 28.21859 | 113.24228 | 574 ft | 140 kts | 175° |
| 2026-04-27 11:15 | 28.20910 | 113.24276 | 384 ft | 134 kts | 176° |
| 2026-04-27 11:15 | 28.19992 | 113.24332 | 232 ft | 128 kts | 175° |
| 2026-04-27 11:15 | 28.19227 | 113.24389 | 213 ft | 89 kts | 176° |
| 2026-04-27 11:16 | 28.18777 | 113.24416 | 217 ft | 53 kts | 176° |
| 2026-04-27 11:16 | 28.18451 | 113.24436 | 213 ft | 42 kts | 176° |
| 2026-04-27 11:16 | 28.18188 | 113.24452 | 211 ft | 34 kts | 176° |
| 2026-04-27 11:16 | 28.17969 | 113.24465 | 214 ft | 29 kts | 177° |
| 2026-04-27 11:17 | 28.17770 | 113.24480 | 210 ft | 28 kts | 178° |
| 2026-04-27 11:17 | 28.17585 | 113.24492 | 210 ft | 25 kts | 175° |
| 2026-04-27 11:17 | 28.17419 | 113.24499 | 210 ft | 23 kts | 183° |
| 2026-04-27 11:17 | 28.17263 | 113.24510 | 213 ft | 22 kts | 176° |
| 2026-04-27 11:18 | 28.17121 | 113.24517 | 213 ft | 19 kts | 178° |
| 2026-04-27 11:18 | 28.16988 | 113.24526 | 212 ft | 19 kts | 178° |
| 2026-04-27 11:18 | 28.16860 | 113.24527 | 212 ft | 13 kts | 187° |
| 2026-04-27 11:18 | 28.16843 | 113.24545 | 212 ft | 2 kts | 38° |
| 2026-04-27 11:19 | 28.16852 | 113.24543 | 213 ft | 1 kts | 340° |
| 2026-04-27 11:19 | 28.16882 | 113.24532 | 212 ft | 7 kts | 353° |
| 2026-04-27 11:19 | 28.16951 | 113.24529 | 215 ft | 13 kts | 358° |
| 2026-04-27 11:19 | 28.17053 | 113.24522 | 213 ft | 17 kts | 356° |
| 2026-04-27 11:20 | 28.17188 | 113.24515 | 212 ft | 22 kts | 358° |
| 2026-04-27 11:20 | 28.17360 | 113.24504 | 210 ft | 27 kts | 355° |
| 2026-04-27 11:20 | 28.17569 | 113.24490 | 210 ft | 33 kts | 358° |
| 2026-04-27 11:20 | 28.17815 | 113.24475 | 209 ft | 38 kts | 358° |
| 2026-04-27 11:21 | 28.18091 | 113.24462 | 211 ft | 41 kts | 356° |
| 2026-04-27 11:21 | 28.18389 | 113.24439 | 213 ft | 45 kts | 356° |
| 2026-04-27 11:21 | 28.18711 | 113.24424 | 217 ft | 48 kts | 359° |
| 2026-04-27 11:21 | 28.19050 | 113.24398 | 210 ft | 51 kts | 357° |
| 2026-04-27 11:22 | 28.19414 | 113.24377 | 209 ft | 52 kts | 356° |
| 2026-04-27 11:22 | 28.19739 | 113.24356 | 217 ft | 42 kts | 357° |
| 2026-04-27 11:22 | 28.19954 | 113.24343 | 214 ft | 25 kts | 357° |
| 2026-04-27 11:22 | 28.20027 | 113.24319 | 214 ft | 8 kts | 358° |
| 2026-04-27 11:23 | 28.20033 | 113.24352 | 217 ft | 5 kts | 163° |
| 2026-04-27 11:23 | 28.20002 | 113.24341 | 214 ft | 5 kts | 195° |
| 2026-04-27 11:23 | 28.19918 | 113.24344 | 213 ft | 39 kts | 176° |
| 2026-04-27 11:23 | 28.19340 | 113.24381 | 208 ft | 125 kts | 175° |
| 2026-04-27 11:24 | 28.18268 | 113.24464 | 474 ft | 172 kts | 174° |
| 2026-04-27 11:24 | 28.16996 | 113.24552 | 1337 ft | 189 kts | 178° |
| 2026-04-27 11:24 | 28.15611 | 113.24616 | 1993 ft | 209 kts | 176° |
| 2026-04-27 11:24 | 28.14158 | 113.24717 | 2010 ft | 206 kts | 176° |
| 2026-04-27 11:25 | 28.12779 | 113.25018 | 1994 ft | 202 kts | 153° |
| 2026-04-27 11:25 | 28.11859 | 113.26183 | 1989 ft | 205 kts | 113° |
| 2026-04-27 11:25 | 28.11745 | 113.27796 | 2000 ft | 210 kts | 87° |
| 2026-04-27 11:25 | 28.11897 | 113.29438 | 2008 ft | 209 kts | 86° |
| 2026-04-27 11:26 | 28.12051 | 113.31075 | 2004 ft | 209 kts | 86° |
| 2026-04-27 11:26 | 28.12455 | 113.32645 | 1991 ft | 212 kts | 58° |
| 2026-04-27 11:26 | 28.13626 | 113.33621 | 1990 ft | 214 kts | 18° |
| 2026-04-27 11:26 | 28.15102 | 113.33708 | 1995 ft | 217 kts | 356° |
| 2026-04-27 11:27 | 28.16619 | 113.33578 | 2007 ft | 219 kts | 356° |
| 2026-04-27 11:27 | 28.18142 | 113.33443 | 2011 ft | 219 kts | 356° |
| 2026-04-27 11:27 | 28.19665 | 113.33298 | 2005 ft | 219 kts | 356° |
| 2026-04-27 11:27 | 28.21182 | 113.33156 | 2007 ft | 218 kts | 356° |
| 2026-04-27 11:28 | 28.22650 | 113.33013 | 2011 ft | 218 kts | 355° |
| 2026-04-27 11:28 | 28.24160 | 113.32866 | 2012 ft | 218 kts | 356° |
| 2026-04-27 11:28 | 28.25654 | 113.32718 | 2011 ft | 218 kts | 356° |
| 2026-04-27 11:28 | 28.27165 | 113.32570 | 2006 ft | 218 kts | 355° |
| 2026-04-27 11:29 | 28.28681 | 113.32419 | 2005 ft | 219 kts | 355° |
| 2026-04-27 11:29 | 28.30196 | 113.32271 | 2003 ft | 216 kts | 356° |
| 2026-04-27 11:29 | 28.31643 | 113.32130 | 1991 ft | 201 kts | 356° |
| 2026-04-27 11:29 | 28.32930 | 113.31691 | 1983 ft | 193 kts | 322° |
| 2026-04-27 11:30 | 28.33620 | 113.30425 | 1987 ft | 193 kts | 277° |
| 2026-04-27 11:30 | 28.33634 | 113.28908 | 1994 ft | 193 kts | 265° |
| 2026-04-27 11:30 | 28.33601 | 113.27380 | 1994 ft | 194 kts | 266° |
| 2026-04-27 11:30 | 28.33548 | 113.25848 | 1993 ft | 193 kts | 260° |
| 2026-04-27 11:31 | 28.32966 | 113.24548 | 1991 ft | 185 kts | 218° |
| 2026-04-27 11:31 | 28.31840 | 113.23907 | 1993 ft | 181 kts | 193° |
| 2026-04-27 11:31 | 28.30609 | 113.23735 | 1992 ft | 181 kts | 179° |
| 2026-04-27 11:31 | 28.29343 | 113.23771 | 1968 ft | 184 kts | 178° |
| 2026-04-27 11:32 | 28.28033 | 113.23821 | 1738 ft | 190 kts | 176° |
| 2026-04-27 11:32 | 28.26719 | 113.23931 | 1502 ft | 185 kts | 175° |
| 2026-04-27 11:32 | 28.25484 | 113.24000 | 1258 ft | 167 kts | 177° |
| 2026-04-27 11:32 | 28.24411 | 113.24065 | 1062 ft | 144 kts | 175° |
| 2026-04-27 11:33 | 28.23563 | 113.24130 | 900 ft | 143 kts | 176° |
| 2026-04-27 11:33 | 28.22572 | 113.24164 | 703 ft | 142 kts | 176° |
| 2026-04-27 11:33 | 28.21589 | 113.24244 | 520 ft | 142 kts | 174° |
| 2026-04-27 11:33 | 28.20596 | 113.24305 | 328 ft | 142 kts | 176° |
| 2026-04-27 11:34 | 28.19627 | 113.24359 | 280 ft | 139 kts | 174° |
| 2026-04-27 11:34 | 28.18641 | 113.24431 | 282 ft | 141 kts | 176° |
| 2026-04-27 11:34 | 28.17664 | 113.24476 | 284 ft | 141 kts | 174° |
| 2026-04-27 11:34 | 28.16676 | 113.24555 | 287 ft | 145 kts | 175° |
| 2026-04-27 11:35 | 28.15997 | 113.24582 | 513 ft | 150 kts | 176° |
| 2026-04-27 11:35 | 28.14888 | 113.24629 | 756 ft | 171 kts | 176° |
| 2026-04-27 11:35 | 28.13279 | 113.24743 | 1927 ft | 186 kts | 175° |
| 2026-04-27 11:35 | 28.11913 | 113.24836 | 1997 ft | 201 kts | 176° |
| 2026-04-27 11:36 | 28.11003 | 113.25020 | 1987 ft | 202 kts | 159° |
| 2026-04-27 11:36 | 28.09967 | 113.26059 | 1990 ft | 205 kts | 118° |
| 2026-04-27 11:36 | 28.09742 | 113.27648 | 1997 ft | 209 kts | 88° |
| 2026-04-27 11:36 | 28.09884 | 113.29288 | 2001 ft | 208 kts | 86° |
| 2026-04-27 11:37 | 28.10040 | 113.30916 | 2003 ft | 208 kts | 82° |
| 2026-04-27 11:37 | 28.10705 | 113.32350 | 1988 ft | 213 kts | 44° |
| 2026-04-27 11:37 | 28.12057 | 113.32996 | 1990 ft | 216 kts | 6° |
| 2026-04-27 11:37 | 28.13556 | 113.32927 | 1996 ft | 216 kts | 356° |
| 2026-04-27 11:38 | 28.15062 | 113.32798 | 2004 ft | 218 kts | 356° |
| 2026-04-27 11:38 | 28.16582 | 113.32661 | 2008 ft | 220 kts | 356° |
| 2026-04-27 11:38 | 28.18103 | 113.32513 | 2008 ft | 219 kts | 356° |
| 2026-04-27 11:38 | 28.19615 | 113.32371 | 2005 ft | 217 kts | 356° |
| 2026-04-27 11:39 | 28.21118 | 113.32227 | 2010 ft | 216 kts | 356° |
| 2026-04-27 11:39 | 28.22621 | 113.32081 | 2007 ft | 217 kts | 355° |
| 2026-04-27 11:39 | 28.24126 | 113.31931 | 2006 ft | 218 kts | 356° |
| 2026-04-27 11:39 | 28.25589 | 113.31785 | 2005 ft | 218 kts | 355° |
| 2026-04-27 11:40 | 28.27101 | 113.31633 | 2008 ft | 218 kts | 356° |
| 2026-04-27 11:40 | 28.28615 | 113.31482 | 2005 ft | 219 kts | 355° |
| 2026-04-27 11:40 | 28.30097 | 113.31141 | 1993 ft | 220 kts | 334° |
| 2026-04-27 11:40 | 28.31146 | 113.29934 | 1988 ft | 216 kts | 293° |
| 2026-04-27 11:41 | 28.31377 | 113.28283 | 1991 ft | 213 kts | 267° |
| 2026-04-27 11:41 | 28.31336 | 113.26595 | 1892 ft | 217 kts | 266° |
| 2026-04-27 11:41 | 28.31289 | 113.24878 | 1705 ft | 216 kts | 266° |
| 2026-04-27 11:41 | 28.31229 | 113.23226 | 1515 ft | 208 kts | 266° |
| 2026-04-27 11:42 | 28.31084 | 113.21698 | 1495 ft | 185 kts | 250° |
| 2026-04-27 11:42 | 28.30268 | 113.20658 | 1491 ft | 181 kts | 203° |
| 2026-04-27 11:42 | 28.29038 | 113.20606 | 1495 ft | 178 kts | 161° |
| 2026-04-27 11:42 | 28.27952 | 113.21132 | 1495 ft | 164 kts | 156° |
| 2026-04-27 11:43 | 28.26934 | 113.21633 | 1492 ft | 155 kts | 156° |
| 2026-04-27 11:43 | 28.25907 | 113.21889 | 1364 ft | 148 kts | 176° |
| 2026-04-27 11:43 | 28.24962 | 113.21966 | 1023 ft | 126 kts | 173° |
| 2026-04-27 11:43 | 28.24134 | 113.22043 | 864 ft | 117 kts | 175° |
| 2026-04-27 11:44 | 28.23240 | 113.22094 | 715 ft | 129 kts | 176° |
| 2026-04-27 11:44 | 28.22384 | 113.22141 | 547 ft | 120 kts | 174° |
| 2026-04-27 11:44 | 28.21553 | 113.22211 | 390 ft | 123 kts | 175° |
| 2026-04-27 11:44 | 28.20698 | 113.22250 | 255 ft | 123 kts | 175° |
| 2026-04-27 11:45 | 28.19928 | 113.22303 | 213 ft | 94 kts | 173° |
| 2026-04-27 11:45 | 28.19450 | 113.22334 | 209 ft | 49 kts | 177° |
| 2026-04-27 11:45 | 28.19176 | 113.22349 | 209 ft | 34 kts | 176° |
| 2026-04-27 11:45 | 28.18965 | 113.22357 | 210 ft | 27 kts | 187° |
| 2026-04-27 11:46 | 28.18794 | 113.22296 | 215 ft | 25 kts | 202° |
| 2026-04-27 11:46 | 28.18636 | 113.22218 | 215 ft | 24 kts | 202° |
| 2026-04-27 11:46 | 28.18473 | 113.22200 | 215 ft | 23 kts | 176° |
| 2026-04-27 11:46 | 28.18312 | 113.22211 | 209 ft | 23 kts | 176° |
| 2026-04-27 11:47 | 28.18151 | 113.22225 | 212 ft | 23 kts | 180° |
| 2026-04-27 11:47 | 28.17990 | 113.22230 | 208 ft | 23 kts | 176° |
| 2026-04-27 11:47 | 28.17831 | 113.22239 | 213 ft | 15 kts | 176° |
| 2026-04-27 11:47 | 28.17763 | 113.22185 | 211 ft | 14 kts | 269° |
| 2026-04-27 11:48 | 28.17758 | 113.22072 | 209 ft | 14 kts | 267° |
| 2026-04-27 11:48 | 28.17741 | 113.21962 | 210 ft | 14 kts | 266° |
| 2026-04-27 11:48 | 28.17774 | 113.21857 | 211 ft | 16 kts | 334° |
| 2026-04-27 11:48 | 28.17885 | 113.21854 | 211 ft | 17 kts | 356° |
| 2026-04-27 11:49 | 28.18018 | 113.21845 | 208 ft | 21 kts | 357° |
| 2026-04-27 11:49 | 28.18177 | 113.21835 | 214 ft | 25 kts | 355° |
| 2026-04-27 11:49 | 28.18361 | 113.21824 | 212 ft | 28 kts | 357° |
| 2026-04-27 11:49 | 28.18567 | 113.21812 | 210 ft | 31 kts | 355° |
| 2026-04-27 11:50 | 28.18791 | 113.21798 | 208 ft | 33 kts | 357° |
| 2026-04-27 11:50 | 28.19025 | 113.21783 | 209 ft | 35 kts | 357° |
| 2026-04-27 11:50 | 28.19271 | 113.21768 | 211 ft | 36 kts | 356° |
| 2026-04-27 11:50 | 28.19525 | 113.21752 | 217 ft | 37 kts | 357° |
| 2026-04-27 11:51 | 28.19789 | 113.21736 | 216 ft | 39 kts | 357° |
| 2026-04-27 11:51 | 28.20024 | 113.21722 | 213 ft | 24 kts | 356° |
| 2026-04-27 11:51 | 28.20120 | 113.21642 | 208 ft | 7 kts | 272° |
| 2026-04-27 11:52 | 28.20120 | 113.21628 | 208 ft | 0 kts | 268° |